createdAt,value
2018-09-02T00:01:03.963Z,16.19
2018-09-02T00:03:33.468Z,16.03
2018-09-02T00:06:02.973Z,16.11
2018-09-02T00:08:32.373Z,16.00
2018-09-02T00:11:01.642Z,16.12
2018-09-02T00:13:31.188Z,16.02
2018-09-02T00:16:00.687Z,16.19
2018-09-02T00:18:30.188Z,15.94
2018-09-02T00:20:59.625Z,15.97
2018-09-02T00:23:29.300Z,15.97
2018-09-02T00:26:00.000Z,16.12
2018-09-02T00:28:29.537Z,13.77
2018-09-02T00:30:59.142Z,16.04
2018-09-02T00:33:28.460Z,15.99
2018-09-02T00:35:57.755Z,16.01
2018-09-02T00:38:27.208Z,16.10
2018-09-02T00:40:56.853Z,16.07
2018-09-02T00:43:26.313Z,16.07
2018-09-02T00:45:55.864Z,16.08
2018-09-02T00:48:25.104Z,16.06
2018-09-02T00:50:54.360Z,15.91
2018-09-02T00:53:23.761Z,15.81
2018-09-02T00:55:52.978Z,15.90
2018-09-02T00:58:22.467Z,15.82
2018-09-02T01:00:51.865Z,15.83
2018-09-02T01:03:21.266Z,15.93
2018-09-02T01:05:51.693Z,15.90
2018-09-02T01:08:21.042Z,15.94
2018-09-02T01:10:50.699Z,16.03
2018-09-02T01:13:20.002Z,16.05
2018-09-02T01:15:49.401Z,16.07
2018-09-02T01:18:18.905Z,16.11
2018-09-02T01:20:48.278Z,16.07
2018-09-02T01:23:17.613Z,16.11
2018-09-02T01:25:46.884Z,16.07
2018-09-02T01:28:16.309Z,16.06
2018-09-02T01:30:45.747Z,16.03
2018-09-02T01:33:15.113Z,16.10
2018-09-02T01:35:44.403Z,16.12
2018-09-02T01:38:13.815Z,16.10
2018-09-02T01:40:43.320Z,16.13
2018-09-02T01:43:12.569Z,16.13
2018-09-02T01:45:41.963Z,16.14
2018-09-02T01:48:11.318Z,16.29
2018-09-02T01:50:46.333Z,16.25
2018-09-02T01:53:15.835Z,16.28
2018-09-02T01:55:45.258Z,16.28
2018-09-02T01:58:14.662Z,16.21
2018-09-02T02:00:44.472Z,16.12
2018-09-02T02:03:13.711Z,16.18
2018-09-02T02:05:43.172Z,16.23
2018-09-02T02:08:12.574Z,16.31
2018-09-02T02:10:41.990Z,16.34
2018-09-02T02:13:11.379Z,16.38
2018-09-02T02:15:40.652Z,16.31
2018-09-02T02:18:10.077Z,16.26
2018-09-02T02:20:39.483Z,16.37
2018-09-02T02:23:08.884Z,16.36
2018-09-02T02:25:38.302Z,16.39
2018-09-02T02:28:07.688Z,16.16
2018-09-02T02:30:37.029Z,16.24
2018-09-02T02:33:06.381Z,16.14
2018-09-02T02:35:35.791Z,16.22
2018-09-02T02:38:05.519Z,16.27
2018-09-02T02:40:35.720Z,16.29
2018-09-02T02:43:05.226Z,16.29
2018-09-02T02:45:34.469Z,16.39
2018-09-02T02:48:03.825Z,16.48
2018-09-02T02:50:33.121Z,16.36
2018-09-02T02:53:04.662Z,16.18
2018-09-02T02:55:35.305Z,16.01
2018-09-02T02:58:04.710Z,16.08
2018-09-02T03:00:34.215Z,15.85
2018-09-02T03:03:03.615Z,15.62
2018-09-02T03:05:32.915Z,15.52
2018-09-02T03:08:02.317Z,15.54
2018-09-02T03:10:31.719Z,15.55
2018-09-02T03:13:01.131Z,15.53
2018-09-02T03:15:30.522Z,15.70
2018-09-02T03:17:59.924Z,15.36
2018-09-02T03:20:29.326Z,15.47
2018-09-02T03:22:58.729Z,15.35
2018-09-02T03:25:28.026Z,15.56
2018-09-02T03:27:57.428Z,15.77
2018-09-02T03:30:26.942Z,15.83
2018-09-02T03:32:56.336Z,16.01
2018-09-02T03:35:25.635Z,16.17
2018-09-02T03:37:55.140Z,16.33
2018-09-02T03:40:24.541Z,16.20
2018-09-02T03:42:53.943Z,16.31
2018-09-02T03:45:23.345Z,16.21
2018-09-02T03:47:52.746Z,16.23
2018-09-02T03:50:22.045Z,15.97
2018-09-02T03:52:51.551Z,15.98
2018-09-02T03:55:21.125Z,15.98
2018-09-02T03:57:50.561Z,16.06
2018-09-02T04:00:19.860Z,16.17
2018-09-02T04:02:49.266Z,16.34
2018-09-02T04:05:18.667Z,16.40
2018-09-02T04:07:48.079Z,16.47
2018-09-02T04:10:17.469Z,16.53
2018-09-02T04:12:46.871Z,16.53
2018-09-02T04:15:16.270Z,16.60
2018-09-02T04:17:45.674Z,16.61
2018-09-02T04:20:15.074Z,16.61
2018-09-02T04:22:44.477Z,16.56
2018-09-02T04:25:13.778Z,16.51
2018-09-02T04:27:43.179Z,16.56
2018-09-02T04:30:12.499Z,16.19
2018-09-02T04:32:41.880Z,16.22
2018-09-02T04:35:11.384Z,16.18
2018-09-02T04:37:40.685Z,16.33
2018-09-02T04:40:10.187Z,16.39
2018-09-02T04:42:39.691Z,16.30
2018-09-02T04:45:09.232Z,16.31
2018-09-02T04:47:38.803Z,16.34
2018-09-02T04:50:15.360Z,16.28
2018-09-02T04:52:44.581Z,16.30
2018-09-02T04:55:14.075Z,16.21
2018-09-02T04:57:44.347Z,16.48
2018-09-02T05:00:14.007Z,16.61
2018-09-02T05:02:43.329Z,16.65
2018-09-02T05:05:12.705Z,16.73
2018-09-02T05:07:42.162Z,16.86
2018-09-02T05:10:11.677Z,16.87
2018-09-02T05:12:40.910Z,16.80
2018-09-02T05:15:10.415Z,16.90
2018-09-02T05:17:39.920Z,16.92
2018-09-02T05:20:09.524Z,16.94
2018-09-02T05:22:39.032Z,16.69
2018-09-02T05:25:08.427Z,16.60
2018-09-02T05:27:38.122Z,16.53
2018-09-02T05:30:07.646Z,16.76
2018-09-02T05:32:37.150Z,16.52
2018-09-02T05:35:07.024Z,16.58
2018-09-02T05:37:36.367Z,16.57
2018-09-02T05:40:05.895Z,16.41
2018-09-02T05:42:35.191Z,16.44
2018-09-02T05:45:07.539Z,16.23
2018-09-02T05:47:36.941Z,16.43
2018-09-02T05:50:06.651Z,16.60
2018-09-02T05:52:36.052Z,16.77
2018-09-02T05:55:05.705Z,16.84
2018-09-02T05:57:35.015Z,16.68
2018-09-02T06:00:04.974Z,16.57
2018-09-02T06:02:34.379Z,16.44
2018-09-02T06:05:03.985Z,16.84
2018-09-02T06:07:33.385Z,16.82
2018-09-02T06:10:02.839Z,16.95
2018-09-02T06:12:32.086Z,16.91
2018-09-02T06:15:01.549Z,17.10
2018-09-02T06:17:30.994Z,17.31
2018-09-02T06:20:00.394Z,17.20
2018-09-02T06:22:30.003Z,17.41
2018-09-02T06:25:00.839Z,17.38
2018-09-02T06:27:30.550Z,17.46
2018-09-02T06:30:00.154Z,17.46
2018-09-02T06:32:29.610Z,17.56
2018-09-02T06:34:59.260Z,17.57
2018-09-02T06:37:29.280Z,17.56
2018-09-02T06:39:58.681Z,17.56
2018-09-02T06:42:29.183Z,17.49
2018-09-02T06:45:04.158Z,17.57
2018-09-02T06:47:33.756Z,17.54
2018-09-02T06:50:03.296Z,17.46
2018-09-02T06:52:35.156Z,17.53
2018-09-02T06:55:04.929Z,16.34
2018-09-02T06:57:34.158Z,17.71
2018-09-02T07:00:04.036Z,17.81
2018-09-02T07:02:33.502Z,18.00
2018-09-02T07:05:02.941Z,18.05
2018-09-02T07:07:32.445Z,17.92
2018-09-02T07:10:03.365Z,17.95
2018-09-02T07:12:33.703Z,17.71
2018-09-02T07:15:03.752Z,17.90
2018-09-02T07:17:33.782Z,18.00
2018-09-02T07:20:03.363Z,17.94
2018-09-02T07:22:32.952Z,17.97
2018-09-02T07:25:02.457Z,17.70
2018-09-02T07:27:31.963Z,17.59
2018-09-02T07:30:01.576Z,17.41
2018-09-02T07:32:30.972Z,17.44
2018-09-02T07:35:00.371Z,17.71
2018-09-02T07:37:29.882Z,17.86
2018-09-02T07:39:59.380Z,17.85
2018-09-02T07:42:29.089Z,17.81
2018-09-02T07:44:58.490Z,17.70
2018-09-02T07:47:27.893Z,17.84
2018-09-02T07:49:57.398Z,17.81
2018-09-02T07:52:26.902Z,17.90
2018-09-02T07:54:56.709Z,17.87
2018-09-02T07:57:26.224Z,17.74
2018-09-02T07:59:55.717Z,17.91
2018-09-02T08:02:25.128Z,17.99
2018-09-02T08:04:54.642Z,18.02
2018-09-02T08:07:24.133Z,18.22
2018-09-02T08:09:53.943Z,18.25
2018-09-02T08:12:23.489Z,18.06
2018-09-02T08:14:53.053Z,17.92
2018-09-02T08:17:22.559Z,18.14
2018-09-02T08:19:52.113Z,18.06
2018-09-02T08:22:21.570Z,18.20
2018-09-02T08:24:50.800Z,18.38
2018-09-02T08:27:20.064Z,18.39
2018-09-02T08:29:49.467Z,18.42
2018-09-02T08:32:18.873Z,18.34
2018-09-02T08:34:48.474Z,18.47
2018-09-02T08:37:17.876Z,18.64
2018-09-02T08:39:47.280Z,18.69
2018-09-02T08:42:16.618Z,18.63
2018-09-02T08:44:45.862Z,18.67
2018-09-02T08:47:15.689Z,18.91
2018-09-02T08:49:45.091Z,19.08
2018-09-02T08:52:14.596Z,19.10
2018-09-02T08:54:43.999Z,18.97
2018-09-02T08:57:13.502Z,18.87
2018-09-02T08:59:42.904Z,18.82
2018-09-02T09:02:12.203Z,18.89
2018-09-02T09:04:41.605Z,18.93
2018-09-02T09:07:11.783Z,18.88
2018-09-02T09:09:41.173Z,18.92
2018-09-02T09:12:10.544Z,18.93
2018-09-02T09:14:40.139Z,18.99
2018-09-02T09:17:09.620Z,18.97
2018-09-02T09:19:38.938Z,18.93
2018-09-02T09:22:08.455Z,19.09
2018-09-02T09:24:37.953Z,18.96
2018-09-02T09:27:07.370Z,18.85
2018-09-02T09:29:36.852Z,18.98
2018-09-02T09:32:06.370Z,19.09
2018-09-02T09:34:35.863Z,19.05
2018-09-02T09:37:05.271Z,19.09
2018-09-02T09:39:36.202Z,19.23
2018-09-02T09:42:06.115Z,19.31
2018-09-02T09:44:35.379Z,19.34
2018-09-02T09:47:04.816Z,19.22
2018-09-02T09:49:34.219Z,19.21
2018-09-02T09:52:04.849Z,19.17
2018-09-02T09:54:34.355Z,19.02
2018-09-02T09:57:04.142Z,19.06
2018-09-02T09:59:33.567Z,18.90
2018-09-02T10:02:03.277Z,18.72
2018-09-02T10:04:33.250Z,18.70
2018-09-02T10:07:02.771Z,18.92
2018-09-02T10:09:32.192Z,18.92
2018-09-02T10:12:01.599Z,18.94
2018-09-02T10:14:31.048Z,18.78
2018-09-02T10:17:00.508Z,18.61
2018-09-02T10:19:30.011Z,18.59
2018-09-02T10:22:00.243Z,18.55
2018-09-02T10:24:29.736Z,18.58
2018-09-02T10:26:59.138Z,18.63
2018-09-02T10:29:35.041Z,18.83
2018-09-02T10:32:04.495Z,18.69
2018-09-02T10:34:33.897Z,18.77
2018-09-02T10:37:03.204Z,18.55
2018-09-02T10:39:32.606Z,18.25
2018-09-02T10:42:02.105Z,18.14
2018-09-02T10:44:32.018Z,18.23
2018-09-02T10:47:01.379Z,18.39
2018-09-02T10:49:32.162Z,18.48
2018-09-02T10:52:01.656Z,18.59
2018-09-02T10:54:31.060Z,18.83
2018-09-02T10:57:00.360Z,18.52
2018-09-02T10:59:29.895Z,18.39
2018-09-02T11:01:59.366Z,18.48
2018-09-02T11:04:28.767Z,18.39
2018-09-02T11:06:58.170Z,18.26
2018-09-02T11:09:27.573Z,18.22
2018-09-02T11:11:56.875Z,18.35
2018-09-02T11:14:26.495Z,18.54
2018-09-02T11:16:56.005Z,18.59
2018-09-02T11:19:25.641Z,18.68
2018-09-02T11:21:55.093Z,18.57
2018-09-02T11:24:24.411Z,18.62
2018-09-02T11:26:53.999Z,18.48
2018-09-02T11:29:23.531Z,18.40
2018-09-02T11:31:53.009Z,18.52
2018-09-02T11:34:22.513Z,18.77
2018-09-02T11:36:52.222Z,18.89
2018-09-02T11:39:21.433Z,18.49
2018-09-02T11:41:51.023Z,18.56
2018-09-02T11:44:20.427Z,18.54
2018-09-02T11:46:49.926Z,18.41
2018-09-02T11:49:19.947Z,18.50
2018-09-02T11:51:49.453Z,18.45
2018-09-02T11:54:19.294Z,18.48
2018-09-02T11:56:48.666Z,18.70
2018-09-02T11:59:18.069Z,18.87
2018-09-02T12:01:47.536Z,18.87
2018-09-02T12:04:16.953Z,18.64
2018-09-02T12:06:46.888Z,18.73
2018-09-02T12:09:16.365Z,18.46
2018-09-02T12:11:46.159Z,18.29
2018-09-02T12:14:16.535Z,17.96
2018-09-02T12:16:45.861Z,17.90
2018-09-02T12:19:15.453Z,17.93
2018-09-02T12:21:45.052Z,17.88
2018-09-02T12:24:14.951Z,17.47
2018-09-02T12:26:44.504Z,17.26
2018-09-02T12:29:14.166Z,17.02
2018-09-02T12:31:44.388Z,17.13
2018-09-02T12:34:14.007Z,17.48
2018-09-02T12:36:43.396Z,17.67
2018-09-02T12:39:12.908Z,17.93
2018-09-02T12:41:42.616Z,17.85
2018-09-02T12:44:11.911Z,17.55
2018-09-02T12:46:42.676Z,17.51
2018-09-02T12:49:12.591Z,17.62
2018-09-02T12:51:42.265Z,17.44
2018-09-02T12:54:12.304Z,17.18
2018-09-02T12:56:43.936Z,17.42
2018-09-02T12:59:13.405Z,17.37
2018-09-02T13:01:43.049Z,17.40
2018-09-02T13:04:12.711Z,17.16
2018-09-02T13:06:42.158Z,17.16
2018-09-02T13:09:12.646Z,17.43
2018-09-02T13:11:42.088Z,17.27
2018-09-02T13:14:11.552Z,17.26
2018-09-02T13:16:41.106Z,17.15
2018-09-02T13:19:10.637Z,17.29
2018-09-02T13:21:40.175Z,17.35
2018-09-02T13:24:09.523Z,17.28
2018-09-02T13:26:38.914Z,17.48
2018-09-02T13:29:08.305Z,17.64
2018-09-02T13:31:37.818Z,17.72
2018-09-02T13:34:07.321Z,17.79
2018-09-02T13:36:36.856Z,17.74
2018-09-02T13:39:07.866Z,17.96
2018-09-02T13:41:38.139Z,17.98
2018-09-02T13:44:11.292Z,18.02
2018-09-02T13:46:41.675Z,17.79
2018-09-02T13:49:11.313Z,17.70
2018-09-02T13:51:42.312Z,17.76
2018-09-02T13:54:12.170Z,17.73
2018-09-02T13:56:42.900Z,17.83
2018-09-02T13:59:12.724Z,17.50
2018-09-02T14:01:43.352Z,17.60
2018-09-02T14:04:15.923Z,17.46
2018-09-02T14:06:46.721Z,17.56
2018-09-02T14:09:17.904Z,17.52
2018-09-02T14:11:48.046Z,17.65
2018-09-02T14:14:19.362Z,17.42
2018-09-02T14:16:49.640Z,17.42
2018-09-02T14:19:20.198Z,17.67
2018-09-02T14:21:52.076Z,17.89
2018-09-02T14:24:21.928Z,17.85
2018-09-02T14:26:51.906Z,17.68
2018-09-02T14:29:21.930Z,17.88
2018-09-02T14:31:52.292Z,17.90
2018-09-02T14:34:21.948Z,17.54
2018-09-02T14:36:51.788Z,17.42
2018-09-02T14:39:21.479Z,17.61
2018-09-02T14:41:51.722Z,17.78
2018-09-02T14:44:23.966Z,17.66
2018-09-02T14:46:56.149Z,17.57
2018-09-02T14:49:25.983Z,17.66
2018-09-02T14:51:56.732Z,17.62
2018-09-02T14:54:27.403Z,17.46
2018-09-02T14:56:57.330Z,17.77
2018-09-02T14:59:26.928Z,17.79
2018-09-02T15:01:56.519Z,17.57
2018-09-02T15:04:26.035Z,17.53
2018-09-02T15:06:55.384Z,17.76
2018-09-02T15:09:25.281Z,17.77
2018-09-02T15:11:54.781Z,17.50
2018-09-02T15:14:24.978Z,17.49
2018-09-02T15:16:54.501Z,17.53
2018-09-02T15:19:26.955Z,17.62
2018-09-02T15:21:57.803Z,17.63
2018-09-02T15:24:27.703Z,17.74
2018-09-02T15:26:58.868Z,17.70
2018-09-02T15:29:28.781Z,17.78
2018-09-02T15:31:58.781Z,17.65
2018-09-02T15:34:29.510Z,17.60
2018-09-02T15:36:59.320Z,17.73
2018-09-02T15:39:29.998Z,17.59
2018-09-02T15:42:02.937Z,17.74
2018-09-02T15:44:32.748Z,17.74
2018-09-02T15:47:02.392Z,17.90
2018-09-02T15:49:32.063Z,17.97
2018-09-02T15:52:01.691Z,17.99
2018-09-02T15:54:31.098Z,17.90
2018-09-02T15:57:00.608Z,17.97
2018-09-02T15:59:30.663Z,18.05
2018-09-02T16:02:00.204Z,18.04
2018-09-02T16:04:30.046Z,17.93
2018-09-02T16:06:59.625Z,17.95
2018-09-02T16:09:29.225Z,18.02
2018-09-02T16:11:58.959Z,18.14
2018-09-02T16:14:28.438Z,18.15
2018-09-02T16:16:59.395Z,18.27
2018-09-02T16:19:29.207Z,18.36
2018-09-02T16:21:59.718Z,18.38
2018-09-02T16:24:29.480Z,18.32
2018-09-02T16:26:59.040Z,18.40
2018-09-02T16:29:30.589Z,18.45
2018-09-02T16:31:59.989Z,18.38
2018-09-02T16:34:29.490Z,18.34
2018-09-02T16:36:58.978Z,18.34
2018-09-02T16:39:28.397Z,18.27
2018-09-02T16:41:57.798Z,18.30
2018-09-02T16:44:27.406Z,18.37
2018-09-02T16:46:56.874Z,18.53
2018-09-02T16:49:26.311Z,18.53
2018-09-02T16:51:56.430Z,18.60
2018-09-02T16:54:25.832Z,18.65
2018-09-02T16:56:55.335Z,18.72
2018-09-02T16:59:25.140Z,18.68
2018-09-02T17:01:55.729Z,18.66
2018-09-02T17:04:26.835Z,18.75
2018-09-02T17:06:56.600Z,18.82
2018-09-02T17:09:27.316Z,18.88
2018-09-02T17:11:57.279Z,18.90
2018-09-02T17:14:27.340Z,18.82
2018-09-02T17:16:57.413Z,18.68
2018-09-02T17:19:29.452Z,18.59
2018-09-02T17:21:59.393Z,18.61
2018-09-02T17:24:29.070Z,18.51
2018-09-02T17:26:58.823Z,18.58
2018-09-02T17:29:28.214Z,18.61
2018-09-02T17:31:58.948Z,18.53
2018-09-02T17:34:28.378Z,18.40
2018-09-02T17:36:57.757Z,18.27
2018-09-02T17:39:27.252Z,18.37
2018-09-02T17:41:56.659Z,18.46
2018-09-02T17:44:34.569Z,18.38
2018-09-02T17:47:03.957Z,18.15
2018-09-02T17:49:33.666Z,18.25
2018-09-02T17:52:02.990Z,18.13
2018-09-02T17:54:32.571Z,18.11
2018-09-02T17:57:02.179Z,18.16
2018-09-02T17:59:31.926Z,18.22
2018-09-02T18:02:01.497Z,18.23
2018-09-02T18:04:30.897Z,18.19
2018-09-02T18:07:00.404Z,18.00
2018-09-02T18:09:30.008Z,18.17
2018-09-02T18:11:59.410Z,18.30
2018-09-02T18:14:28.813Z,18.32
2018-09-02T18:16:58.214Z,18.17
2018-09-02T18:19:27.615Z,18.17
2018-09-02T18:21:57.119Z,18.23
2018-09-02T18:24:26.522Z,18.19
2018-09-02T18:26:55.923Z,18.27
2018-09-02T18:29:25.261Z,18.25
2018-09-02T18:31:54.727Z,18.35
2018-09-02T18:34:24.232Z,18.36
2018-09-02T18:36:53.736Z,18.32
2018-09-02T18:39:23.414Z,18.06
2018-09-02T18:41:52.800Z,18.11
2018-09-02T18:44:22.045Z,18.07
2018-09-02T18:46:51.549Z,18.15
2018-09-02T18:49:20.951Z,18.22
2018-09-02T18:51:50.355Z,18.08
2018-09-02T18:54:19.763Z,18.01
2018-09-02T18:56:49.363Z,18.04
2018-09-02T18:59:18.764Z,18.08
2018-09-02T19:01:48.067Z,18.17
2018-09-02T19:04:17.465Z,18.08
2018-09-02T19:06:46.766Z,18.11
2018-09-02T19:09:18.523Z,18.27
2018-09-02T19:11:48.256Z,18.13
2018-09-02T19:14:18.150Z,18.12
2018-09-02T19:16:47.958Z,18.14
2018-09-02T19:19:17.357Z,18.09
2018-09-02T19:21:46.863Z,18.15
2018-09-02T19:24:16.266Z,18.23
2018-09-02T19:26:45.769Z,18.25
2018-09-02T19:29:15.549Z,18.19
2018-09-02T19:31:45.038Z,18.30
2018-09-02T19:34:14.691Z,18.25
2018-09-02T19:36:44.707Z,18.36
2018-09-02T19:39:14.013Z,18.33
2018-09-02T19:41:43.505Z,18.34
2018-09-02T19:44:13.224Z,18.43
2018-09-02T19:46:42.781Z,18.34
2018-09-02T19:49:12.639Z,18.53
2018-09-02T19:51:42.043Z,18.63
2018-09-02T19:54:11.441Z,18.60
2018-09-02T19:56:47.193Z,18.50
2018-09-02T19:59:16.703Z,18.56
2018-09-02T20:01:46.181Z,18.48
2018-09-02T20:04:15.603Z,18.71
2018-09-02T20:06:45.375Z,18.58
2018-09-02T20:09:16.353Z,18.65
2018-09-02T20:11:46.146Z,18.72
2018-09-02T20:14:15.585Z,18.76
2018-09-02T20:16:45.054Z,18.89
2018-09-02T20:19:14.371Z,18.91
2018-09-02T20:21:43.738Z,18.93
2018-09-02T20:24:13.174Z,18.90
2018-09-02T20:26:42.781Z,18.76
2018-09-02T20:29:12.388Z,18.78
2018-09-02T20:31:41.791Z,18.72
2018-09-02T20:34:11.316Z,18.83
2018-09-02T20:36:40.701Z,18.76
2018-09-02T20:39:10.298Z,18.69
2018-09-02T20:41:39.667Z,18.67
2018-09-02T20:44:09.460Z,18.50
2018-09-02T20:46:39.432Z,18.30
2018-09-02T20:49:10.021Z,18.21
2018-09-02T20:51:40.330Z,18.22
2018-09-02T20:54:12.953Z,18.23
2018-09-02T20:56:43.521Z,17.99
2018-09-02T20:59:13.679Z,17.83
2018-09-02T21:01:46.931Z,18.07
2018-09-02T21:04:18.203Z,18.14
2018-09-02T21:06:48.635Z,18.07
2018-09-02T21:09:19.264Z,18.07
2018-09-02T21:11:49.847Z,18.17
2018-09-02T21:14:19.871Z,18.15
2018-09-02T21:17:00.157Z,17.77
2018-09-02T21:19:30.331Z,17.84
2018-09-02T21:22:00.090Z,17.73
2018-09-02T21:24:30.156Z,17.83
2018-09-02T21:26:59.857Z,17.89
2018-09-02T21:29:29.692Z,15.51
2018-09-02T21:31:59.468Z,17.91
2018-09-02T21:34:29.633Z,17.66
2018-09-02T21:37:00.167Z,17.94
2018-09-02T21:39:30.836Z,17.89
2018-09-02T21:42:00.993Z,17.55
2018-09-02T21:44:37.057Z,17.50
2018-09-02T21:47:08.766Z,17.79
2018-09-02T21:49:39.640Z,16.80
2018-09-02T21:52:09.946Z,18.11
2018-09-02T21:54:40.020Z,18.21
2018-09-02T21:57:10.303Z,18.27
2018-09-02T21:59:43.287Z,18.53
2018-09-02T22:02:13.308Z,18.53
2018-09-02T22:04:43.016Z,18.47
2018-09-02T22:07:12.629Z,18.51
2018-09-02T22:09:42.126Z,18.42
2018-09-02T22:12:11.837Z,18.49
2018-09-02T22:14:41.235Z,18.52
2018-09-02T22:17:10.577Z,18.57
2018-09-02T22:19:40.858Z,18.54
2018-09-02T22:22:10.259Z,18.64
2018-09-02T22:24:39.763Z,18.74
2018-09-02T22:27:09.343Z,18.70
2018-09-02T22:29:38.772Z,18.74
2018-09-02T22:32:08.020Z,18.85
2018-09-02T22:34:37.476Z,18.82
2018-09-02T22:37:07.466Z,18.69
2018-09-02T22:39:37.073Z,18.86
2018-09-02T22:42:06.430Z,18.91
2018-09-02T22:44:35.679Z,19.00
2018-09-02T22:47:04.885Z,18.97
2018-09-02T22:49:34.128Z,19.06
2018-09-02T22:52:03.499Z,18.97
2018-09-02T22:54:32.728Z,18.89
2018-09-02T22:57:02.094Z,18.95
2018-09-02T22:59:31.496Z,19.02
2018-09-02T23:02:00.794Z,19.14
2018-09-02T23:04:30.296Z,19.12
2018-09-02T23:06:59.706Z,19.13
2018-09-02T23:09:29.100Z,19.11
2018-09-02T23:11:58.400Z,19.19
2018-09-02T23:14:27.806Z,19.24
2018-09-02T23:16:57.203Z,19.25
2018-09-02T23:19:26.816Z,19.34
2018-09-02T23:21:56.001Z,19.34
2018-09-02T23:24:25.435Z,19.27
2018-09-02T23:26:54.813Z,19.27
2018-09-02T23:29:24.417Z,19.28
2018-09-02T23:31:53.923Z,19.38
2018-09-02T23:34:23.428Z,19.36
2018-09-02T23:36:52.827Z,19.37
2018-09-02T23:39:22.253Z,19.35
2018-09-02T23:41:51.483Z,19.22
2018-09-02T23:44:20.827Z,19.22
2018-09-02T23:46:50.289Z,19.06
2018-09-02T23:49:19.736Z,19.15
2018-09-02T23:51:49.295Z,19.06
2018-09-02T23:54:18.743Z,18.85
2018-09-02T23:56:48.045Z,18.82
2018-09-02T23:59:17.445Z,19.04
